createdAt,value
2022-08-14T00:02:01.555Z,99837.53
2022-08-14T00:05:07.875Z,99840.13
2022-08-14T00:08:14.524Z,99832.78
2022-08-14T00:11:17.157Z,99835.94
2022-08-14T00:14:19.329Z,99837.50
2022-08-14T00:17:22.183Z,99834.22
2022-08-14T00:20:30.189Z,99838.91
2022-08-14T00:23:33.457Z,99832.19
2022-08-14T00:26:35.667Z,99832.31
2022-08-14T00:29:40.582Z,99827.09
2022-08-14T00:32:52.194Z,99829.72
2022-08-14T00:36:34.960Z,99825.16
2022-08-14T00:39:20.758Z,99822.84
2022-08-14T00:42:55.034Z,99819.47
2022-08-14T00:45:52.552Z,99817.09
2022-08-14T00:48:55.308Z,99811.63
2022-08-14T00:52:00.467Z,99812.72
2022-08-14T00:55:06.609Z,99822.91
2022-08-14T00:58:32.795Z,99806.69
2022-08-14T01:01:37.066Z,99816.56
2022-08-14T01:04:53.698Z,99811.66
2022-08-14T01:07:59.739Z,99812.44
2022-08-14T01:11:03.107Z,99808.16
2022-08-14T01:14:27.533Z,99817.44
2022-08-14T01:17:50.018Z,99814.44
2022-08-14T01:21:06.358Z,99816.97
2022-08-14T01:24:10.958Z,99827.28
2022-08-14T01:27:22.393Z,99825.06
2022-08-14T01:30:27.582Z,99825.25
2022-08-14T01:33:30.472Z,99819.22
2022-08-14T01:36:54.084Z,99813.47
2022-08-14T01:39:56.469Z,99816.78
2022-08-14T01:42:58.693Z,99828.75
2022-08-14T01:46:06.865Z,99833.50
2022-08-14T01:49:13.202Z,99834.53
2022-08-14T01:52:33.705Z,99835.34
2022-08-14T01:55:38.562Z,99835.34
2022-08-14T01:58:46.612Z,99833.41
2022-08-14T02:02:10.117Z,99828.50
2022-08-14T02:05:35.579Z,99827.00
2022-08-14T02:08:52.476Z,99829.47
2022-08-14T02:11:56.352Z,99829.75
2022-08-14T02:15:01.581Z,99834.50
2022-08-14T02:18:04.445Z,99833.47
2022-08-14T02:21:06.699Z,99829.19
2022-08-14T02:24:39.263Z,99831.53
2022-08-14T02:28:25.152Z,99829.84
2022-08-14T02:30:54.783Z,99828.25
2022-08-14T02:33:56.905Z,99828.34
2022-08-14T02:37:09.239Z,99832.59
2022-08-14T02:40:14.169Z,99833.63
2022-08-14T02:43:17.402Z,99840.13
2022-08-14T02:46:27.106Z,99829.22
2022-08-14T02:49:35.841Z,99835.78
2022-08-14T02:53:07.399Z,99835.41
2022-08-14T02:56:29.532Z,99838.56
2022-08-14T02:59:28.835Z,99833.56
2022-08-14T03:02:49.009Z,99835.56
2022-08-14T03:05:58.196Z,99838.31
2022-08-14T03:09:01.201Z,99837.84
2022-08-14T03:12:04.919Z,99834.81
2022-08-14T03:15:14.393Z,99841.91
2022-08-14T03:18:22.143Z,99845.06
2022-08-14T03:21:37.120Z,99843.28
2022-08-14T03:24:39.308Z,99844.91
2022-08-14T03:27:48.596Z,99849.25
2022-08-14T03:31:01.652Z,99851.81
2022-08-14T03:34:04.636Z,99848.47
2022-08-14T03:37:37.510Z,99846.09
2022-08-14T03:40:35.284Z,99849.28
2022-08-14T03:43:37.442Z,99847.47
2022-08-14T03:46:54.341Z,99851.66
2022-08-14T03:49:58.319Z,99846.59
2022-08-14T03:53:02.524Z,99845.16
2022-08-14T03:56:06.223Z,99839.06
2022-08-14T03:59:17.893Z,99851.97
2022-08-14T04:02:32.416Z,99843.50
2022-08-14T04:05:43.380Z,99852.47
2022-08-14T04:08:51.693Z,99847.66
2022-08-14T04:11:56.039Z,99846.31
2022-08-14T04:14:58.492Z,99855.38
2022-08-14T04:18:08.493Z,99863.25
2022-08-14T04:21:16.151Z,99848.56
2022-08-14T04:24:18.912Z,99855.69
2022-08-14T04:27:23.205Z,99853.19
2022-08-14T04:30:33.216Z,99863.09
2022-08-14T04:33:36.369Z,99854.31
2022-08-14T04:36:58.917Z,99862.94
2022-08-14T04:40:20.055Z,99868.72
2022-08-14T04:43:39.822Z,99876.59
2022-08-14T04:47:02.015Z,99863.84
2022-08-14T04:50:05.549Z,99864.28
2022-08-14T04:53:07.805Z,99864.81
2022-08-14T04:56:30.974Z,99870.56
2022-08-14T04:59:37.105Z,99872.41
2022-08-14T05:02:45.846Z,99876.28
2022-08-14T05:05:54.513Z,99874.81
2022-08-14T05:09:00.366Z,99873.00
2022-08-14T05:13:11.003Z,99871.44
2022-08-14T05:15:29.445Z,99869.22
2022-08-14T05:19:17.972Z,99872.09
2022-08-14T05:22:16.855Z,99871.47
2022-08-14T05:25:21.265Z,99877.88
2022-08-14T05:28:27.120Z,99871.44
2022-08-14T05:31:39.379Z,99868.75
2022-08-14T05:34:45.757Z,99870.19
2022-08-14T05:37:49.367Z,99870.00
2022-08-14T05:40:51.999Z,99868.44
2022-08-14T05:43:55.082Z,99870.22
2022-08-14T05:46:58.584Z,99869.19
2022-08-14T05:50:01.787Z,99875.09
2022-08-14T05:53:04.292Z,99880.13
2022-08-14T05:56:06.701Z,99878.00
2022-08-14T05:59:11.092Z,99878.31
2022-08-14T06:02:13.228Z,99880.22
2022-08-14T06:05:16.873Z,99873.03
2022-08-14T06:08:36.101Z,99872.78
2022-08-14T06:11:43.451Z,99873.50
2022-08-14T06:14:45.576Z,99875.59
2022-08-14T06:17:55.869Z,99863.06
2022-08-14T06:21:06.205Z,99870.47
2022-08-14T06:24:18.078Z,99872.50
2022-08-14T06:27:21.247Z,99864.94
2022-08-14T06:30:30.492Z,99862.56
2022-08-14T06:35:10.329Z,99861.50
2022-08-14T06:37:11.544Z,99863.87
2022-08-14T06:40:28.014Z,99865.03
2022-08-14T06:43:32.509Z,99858.63
2022-08-14T06:46:37.222Z,99859.19
2022-08-14T06:49:45.001Z,99853.50
2022-08-14T06:52:50.854Z,99852.88
2022-08-14T06:56:00.526Z,99848.53
2022-08-14T06:59:05.242Z,99845.38
2022-08-14T07:02:28.949Z,99841.66
2022-08-14T07:05:55.497Z,99840.53
2022-08-14T07:08:58.631Z,99834.72
2022-08-14T07:12:01.045Z,99832.19
2022-08-14T07:15:06.222Z,99830.16
2022-08-14T07:18:09.750Z,99827.22
2022-08-14T07:21:12.236Z,99836.09
2022-08-14T07:24:26.160Z,99837.69
2022-08-14T07:27:36.125Z,99838.63
2022-08-14T07:30:51.097Z,99831.63
2022-08-14T07:33:54.467Z,99827.28
2022-08-14T07:37:00.641Z,99834.16
2022-08-14T07:40:05.147Z,99828.41
2022-08-14T07:43:14.412Z,99829.56
2022-08-14T07:46:21.200Z,99835.34
2022-08-14T07:49:31.142Z,99836.38
2022-08-14T07:52:34.242Z,99835.34
2022-08-14T07:55:36.812Z,99834.03
2022-08-14T07:58:51.372Z,99826.94
2022-08-14T08:01:57.369Z,99831.22
2022-08-14T08:05:02.565Z,99824.28
2022-08-14T08:08:08.306Z,99822.94
2022-08-14T08:11:34.583Z,99827.72
2022-08-14T08:14:56.493Z,99822.47
2022-08-14T08:18:05.006Z,99821.59
2022-08-14T08:21:08.249Z,99819.97
2022-08-14T08:24:11.184Z,99818.78
2022-08-14T08:27:19.856Z,99820.44
2022-08-14T08:30:24.460Z,99816.88
2022-08-14T08:33:31.759Z,99818.87
2022-08-14T08:36:42.749Z,99813.09
2022-08-14T08:40:01.913Z,99813.94
2022-08-14T08:43:18.346Z,99804.13
2022-08-14T08:46:24.068Z,99809.78
2022-08-14T08:49:48.187Z,99813.81
2022-08-14T08:52:55.524Z,99810.84
2022-08-14T08:55:58.413Z,99815.00
2022-08-14T08:59:00.915Z,99807.06
2022-08-14T09:02:10.425Z,99810.50
2022-08-14T09:05:12.839Z,99802.81
2022-08-14T09:08:31.781Z,99796.91
2022-08-14T09:11:35.045Z,99798.38
2022-08-14T09:14:39.992Z,99794.09
2022-08-14T09:17:43.156Z,99799.00
2022-08-14T09:20:49.409Z,99796.81
2022-08-14T09:24:29.165Z,99791.62
2022-08-14T09:27:22.602Z,99789.34
2022-08-14T09:30:33.020Z,99786.53
2022-08-14T09:33:57.768Z,99774.00
2022-08-14T09:37:11.740Z,99774.41
2022-08-14T09:40:26.446Z,99774.94
2022-08-14T09:43:55.127Z,99771.91
2022-08-14T09:46:59.842Z,99764.56
2022-08-14T09:50:01.976Z,99768.97
2022-08-14T09:53:17.807Z,99774.19
2022-08-14T09:56:30.154Z,99759.72
2022-08-14T09:59:42.009Z,99762.72
2022-08-14T10:03:05.251Z,99768.91
2022-08-14T10:06:14.445Z,99757.75
2022-08-14T10:09:17.686Z,99756.66
2022-08-14T10:12:28.997Z,99756.81
2022-08-14T10:15:46.386Z,99760.94
2022-08-14T10:18:53.298Z,99763.00
2022-08-14T10:23:14.917Z,99756.38
2022-08-14T10:25:40.342Z,99746.44
2022-08-14T10:29:19.050Z,99760.72
2022-08-14T10:32:17.945Z,99760.19
2022-08-14T10:35:22.982Z,99756.09
2022-08-14T10:38:27.778Z,99751.47
2022-08-14T10:41:48.529Z,99742.19
2022-08-14T10:44:56.568Z,99745.72
2022-08-14T10:48:08.561Z,99737.72
2022-08-14T10:51:16.716Z,99744.03
2022-08-14T10:54:35.754Z,99745.75
2022-08-14T10:57:52.498Z,99740.66
2022-08-14T11:00:59.195Z,99733.78
2022-08-14T11:04:02.578Z,99741.03
2022-08-14T11:07:16.812Z,99738.91
2022-08-14T11:10:27.896Z,99731.31
2022-08-14T11:13:31.444Z,99728.13
2022-08-14T11:16:35.943Z,99719.56
2022-08-14T11:19:40.626Z,99715.03
2022-08-14T11:22:55.964Z,99710.28
2022-08-14T11:26:01.579Z,99700.34
2022-08-14T11:29:06.297Z,99700.88
2022-08-14T11:32:10.836Z,99700.19
2022-08-14T11:35:16.275Z,99695.06
2022-08-14T11:38:19.996Z,99689.41
2022-08-14T11:41:22.666Z,99686.16
2022-08-14T11:44:45.805Z,99683.06
2022-08-14T11:48:13.358Z,99679.91
2022-08-14T11:51:30.349Z,99675.31
2022-08-14T11:54:35.485Z,99666.41
2022-08-14T11:57:38.138Z,99660.97
2022-08-14T12:00:53.760Z,99660.19
2022-08-14T12:04:21.866Z,99660.13
2022-08-14T12:07:30.474Z,99653.50
2022-08-14T12:10:40.960Z,99646.09
2022-08-14T12:13:45.967Z,99651.00
2022-08-14T12:17:12.846Z,99647.34
2022-08-14T12:20:15.733Z,99646.22
2022-08-14T12:23:32.807Z,99643.84
2022-08-14T12:26:40.618Z,99645.44
2022-08-14T12:29:53.946Z,99639.88
2022-08-14T12:32:58.897Z,99632.06
2022-08-14T12:36:05.720Z,99630.06
2022-08-14T12:39:20.315Z,99624.19
2022-08-14T12:42:34.876Z,99621.41
2022-08-14T12:45:40.260Z,99627.75
2022-08-14T12:48:46.376Z,99615.88
2022-08-14T12:51:58.383Z,99617.38
2022-08-14T12:55:06.415Z,99614.25
2022-08-14T12:58:28.651Z,99605.41
2022-08-14T13:01:59.875Z,99606.59
2022-08-14T13:04:58.088Z,99611.00
2022-08-14T13:08:05.038Z,99599.28
2022-08-14T13:11:14.568Z,99588.72
2022-08-14T13:14:30.059Z,99593.34
2022-08-14T13:17:41.913Z,99592.47
2022-08-14T13:20:51.507Z,99587.56
2022-08-14T13:24:03.140Z,99584.44
2022-08-14T13:27:12.363Z,99587.53
2022-08-14T13:30:23.413Z,99586.53
2022-08-14T13:33:27.303Z,99582.91
2022-08-14T13:36:54.737Z,99599.34
2022-08-14T13:39:57.090Z,99578.28
2022-08-14T13:42:59.896Z,99579.22
2022-08-14T13:46:03.902Z,99570.56
2022-08-14T13:49:10.586Z,99558.63
2022-08-14T13:52:51.423Z,99565.06
2022-08-14T13:55:52.090Z,99556.22
2022-08-14T13:59:01.296Z,99556.25
2022-08-14T14:02:06.339Z,99555.28
2022-08-14T14:05:14.699Z,99550.34
2022-08-14T14:08:43.707Z,99540.47
2022-08-14T14:11:43.886Z,99534.91
2022-08-14T14:14:51.783Z,99535.37
2022-08-14T14:17:59.544Z,99533.41
2022-08-14T14:21:02.499Z,99536.16
2022-08-14T14:24:06.096Z,99542.00
2022-08-14T14:27:38.928Z,99536.19
2022-08-14T14:30:53.496Z,99535.16
2022-08-14T14:34:12.708Z,99530.84
2022-08-14T14:37:26.748Z,99541.31
2022-08-14T14:40:52.556Z,99536.66
2022-08-14T14:43:58.910Z,99527.75
2022-08-14T14:47:01.928Z,99531.22
2022-08-14T14:50:04.998Z,99526.22
2022-08-14T14:53:12.809Z,99518.56
2022-08-14T14:56:50.244Z,99516.34
2022-08-14T14:59:38.881Z,99510.63
2022-08-14T15:02:42.726Z,99506.31
2022-08-14T15:05:44.666Z,99499.47
2022-08-14T15:08:56.864Z,99504.87
2022-08-14T15:12:16.110Z,99499.31
2022-08-14T15:15:25.172Z,99506.91
2022-08-14T15:18:40.224Z,99508.13
2022-08-14T15:21:49.348Z,99513.91
2022-08-14T15:24:52.904Z,99506.53
2022-08-14T15:27:55.495Z,99514.97
2022-08-14T15:30:58.876Z,99515.28
2022-08-14T15:34:43.100Z,99513.63
2022-08-14T15:37:35.283Z,99513.63
2022-08-14T15:40:51.471Z,99516.09
2022-08-14T15:43:59.965Z,99514.97
2022-08-14T15:47:07.006Z,99507.78
2022-08-14T15:50:09.746Z,99507.50
2022-08-14T15:53:12.389Z,99509.75
2022-08-14T15:56:32.854Z,99502.66
2022-08-14T15:59:58.386Z,99499.34
2022-08-14T16:03:01.664Z,99499.53
2022-08-14T16:06:06.193Z,99493.28
2022-08-14T16:09:13.418Z,99501.78
2022-08-14T16:12:16.688Z,99503.63
2022-08-14T16:15:22.408Z,99497.06
2022-08-14T16:18:27.242Z,99507.38
2022-08-14T16:21:29.622Z,99486.53
2022-08-14T16:24:59.920Z,99499.84
2022-08-14T16:27:59.731Z,99498.53
2022-08-14T16:31:03.018Z,99500.19
2022-08-14T16:34:45.432Z,99496.59
2022-08-14T16:37:30.915Z,99497.41
2022-08-14T16:40:42.957Z,99501.16
2022-08-14T16:43:47.158Z,99494.72
2022-08-14T16:46:57.134Z,99502.59
2022-08-14T16:50:04.714Z,99502.78
2022-08-14T16:53:09.614Z,99502.66
2022-08-14T16:56:17.169Z,99506.59
2022-08-14T16:59:30.657Z,99508.97
2022-08-14T17:03:00.909Z,99500.78
2022-08-14T17:06:03.094Z,99507.69
2022-08-14T17:09:31.473Z,99496.09
2022-08-14T17:12:35.371Z,99492.44
2022-08-14T17:15:37.888Z,99495.75
2022-08-14T17:19:00.114Z,99497.22
2022-08-14T17:22:04.015Z,99499.84
2022-08-14T17:25:07.009Z,99504.31
2022-08-14T17:28:49.819Z,99508.28
2022-08-14T17:31:57.816Z,99522.50
2022-08-14T17:35:01.777Z,99517.34
2022-08-14T17:38:10.126Z,99519.72
2022-08-14T17:41:43.870Z,99527.56
2022-08-14T17:44:48.108Z,99528.31
2022-08-14T17:47:51.415Z,99531.13
2022-08-14T17:51:00.564Z,99538.56
2022-08-14T17:54:04.895Z,99541.28
2022-08-14T17:57:14.028Z,99538.81
2022-08-14T18:00:17.737Z,99532.12
2022-08-14T18:03:49.995Z,99534.47
2022-08-14T18:07:06.190Z,99530.53
2022-08-14T18:10:52.363Z,99537.81
2022-08-14T18:13:50.745Z,99539.34
2022-08-14T18:16:55.855Z,99545.34
2022-08-14T18:20:00.257Z,99537.78
2022-08-14T18:23:06.178Z,99525.94
2022-08-14T18:26:37.229Z,99526.41
2022-08-14T18:29:39.692Z,99526.31
2022-08-14T18:32:55.292Z,99529.78
2022-08-14T18:36:48.633Z,99534.84
2022-08-14T18:39:29.677Z,99529.63
2022-08-14T18:42:32.223Z,99527.87
2022-08-14T18:45:41.234Z,99532.22
2022-08-14T18:48:50.656Z,99534.47
2022-08-14T18:52:13.144Z,99545.34
2022-08-14T18:55:21.435Z,99539.00
2022-08-14T18:58:27.615Z,99544.03
2022-08-14T19:01:34.322Z,99543.25
2022-08-14T19:04:37.374Z,99543.22
2022-08-14T19:07:48.403Z,99545.41
2022-08-14T19:11:03.927Z,99544.84
2022-08-14T19:14:13.057Z,99544.69
2022-08-14T19:18:14.488Z,99539.72
2022-08-14T19:21:22.711Z,99547.34
2022-08-14T19:24:44.246Z,99543.31
2022-08-14T19:28:31.699Z,99540.03
2022-08-14T19:31:42.162Z,99543.66
2022-08-14T19:34:52.211Z,99545.53
2022-08-14T19:37:56.931Z,99541.47
2022-08-14T19:41:01.624Z,99539.62
2022-08-14T19:44:19.500Z,99548.72
2022-08-14T19:47:41.124Z,99537.19
2022-08-14T19:50:46.801Z,99542.97
2022-08-14T19:53:56.443Z,99537.84
2022-08-14T19:56:58.840Z,99547.66
2022-08-14T20:00:28.047Z,99543.16
2022-08-14T20:03:59.896Z,99547.12
2022-08-14T20:07:04.382Z,99545.00
2022-08-14T20:11:12.618Z,99542.25
2022-08-14T20:13:36.267Z,99545.81
2022-08-14T20:16:44.629Z,99541.69
2022-08-14T20:19:49.095Z,99542.81
2022-08-14T20:22:55.605Z,99542.06
2022-08-14T20:25:58.486Z,99540.00
2022-08-14T20:29:05.347Z,99542.50
2022-08-14T20:32:14.758Z,99537.53
2022-08-14T20:35:26.827Z,99543.47
2022-08-14T20:38:38.123Z,99540.44
2022-08-14T20:41:48.988Z,99544.19
2022-08-14T20:45:18.825Z,99545.75
2022-08-14T20:48:52.673Z,99548.88
2022-08-14T20:52:00.292Z,99537.28
2022-08-14T20:55:29.129Z,99544.66
2022-08-14T20:58:43.378Z,99547.12
2022-08-14T21:02:28.418Z,99555.19
2022-08-14T21:05:33.826Z,99562.03
2022-08-14T21:08:37.202Z,99557.50
2022-08-14T21:11:42.612Z,99556.59
2022-08-14T21:14:51.862Z,99564.09
2022-08-14T21:17:56.262Z,99563.16
2022-08-14T21:21:06.947Z,99573.87
2022-08-14T21:24:38.684Z,99573.06
2022-08-14T21:27:37.148Z,99576.66
2022-08-14T21:30:46.999Z,99583.16
2022-08-14T21:33:56.282Z,99574.47
2022-08-14T21:37:06.405Z,99569.06
2022-08-14T21:40:18.611Z,99572.19
2022-08-14T21:43:35.833Z,99575.59
2022-08-14T21:46:46.729Z,99574.59
2022-08-14T21:49:48.894Z,99570.25
2022-08-14T21:53:01.041Z,99577.38
2022-08-14T21:56:12.033Z,99577.19
2022-08-14T21:59:18.383Z,99573.25
2022-08-14T22:02:32.783Z,99574.28
2022-08-14T22:05:37.729Z,99575.56
2022-08-14T22:08:40.583Z,99568.31
2022-08-14T22:11:49.063Z,99575.19
2022-08-14T22:15:00.399Z,99561.66
2022-08-14T22:18:06.593Z,99569.59
2022-08-14T22:21:16.707Z,99568.09
2022-08-14T22:24:38.387Z,99571.66
2022-08-14T22:27:56.311Z,99569.91
2022-08-14T22:31:10.476Z,99573.72
2022-08-14T22:34:15.019Z,99567.91
2022-08-14T22:37:17.646Z,99572.91
2022-08-14T22:40:53.710Z,99568.16
2022-08-14T22:43:43.259Z,99561.88
2022-08-14T22:46:46.292Z,99561.47
2022-08-14T22:50:30.726Z,99557.28
2022-08-14T22:53:12.427Z,99555.66
2022-08-14T22:56:20.290Z,99558.56
2022-08-14T22:59:36.442Z,99552.06
2022-08-14T23:02:40.869Z,99551.47
2022-08-14T23:05:52.777Z,99550.56
2022-08-14T23:08:58.700Z,99539.00
2022-08-14T23:12:04.674Z,99541.50
2022-08-14T23:15:29.957Z,99539.22
2022-08-14T23:18:32.605Z,99542.78
2022-08-14T23:21:34.993Z,99537.19
2022-08-14T23:24:42.685Z,99544.28
2022-08-14T23:28:03.216Z,99536.22
2022-08-14T23:31:09.778Z,99536.22
2022-08-14T23:34:20.744Z,99539.91
2022-08-14T23:37:26.886Z,99539.28
2022-08-14T23:40:30.802Z,99537.59
2022-08-14T23:43:33.086Z,99541.56
2022-08-14T23:46:35.968Z,99530.28
2022-08-14T23:50:00.968Z,99536.53
2022-08-14T23:53:27.935Z,99533.50
2022-08-14T23:56:37.548Z,99539.41
2022-08-14T23:59:54.211Z,99538.78
